createdAt,value
2023-04-15T03:03:06.244Z,11.02
2023-04-15T03:05:35.541Z,11.02
2023-04-15T03:08:05.609Z,11.04
2023-04-15T03:10:34.763Z,11.05
2023-04-15T03:13:04.102Z,11.08
2023-04-15T03:15:34.023Z,11.10
2023-04-15T03:18:03.254Z,11.08
2023-04-15T03:20:32.827Z,11.11
2023-04-15T03:23:01.228Z,11.12
2023-04-15T03:25:31.300Z,11.13
2023-04-15T03:28:02.052Z,11.13
2023-04-15T03:30:31.177Z,11.17
2023-04-15T03:32:59.939Z,11.19
2023-04-15T03:35:29.556Z,11.19
2023-04-15T03:37:57.878Z,11.16
2023-04-15T03:40:26.957Z,11.15
2023-04-15T03:42:55.155Z,11.16
2023-04-15T03:45:24.096Z,11.19
2023-04-15T03:47:52.915Z,11.21
2023-04-15T03:50:22.521Z,11.22
2023-04-15T03:52:51.974Z,11.21
2023-04-15T03:55:21.369Z,11.21
2023-04-15T03:57:50.806Z,11.17
2023-04-15T04:00:20.398Z,11.16
2023-04-15T04:02:49.381Z,11.18
2023-04-15T04:05:18.704Z,11.20
2023-04-15T04:07:48.590Z,11.23
2023-04-15T04:10:17.639Z,11.23
2023-04-15T04:12:46.526Z,11.22
2023-04-15T04:15:15.794Z,11.17
2023-04-15T04:17:45.019Z,11.18
2023-04-15T04:20:14.098Z,11.16
2023-04-15T04:22:42.927Z,11.12
2023-04-15T04:25:11.790Z,11.12
2023-04-15T04:27:41.263Z,11.11
2023-04-15T04:30:10.304Z,11.05
2023-04-15T04:32:39.531Z,11.04
2023-04-15T04:35:08.990Z,11.05
2023-04-15T04:37:40.674Z,11.05
2023-04-15T04:40:11.174Z,11.03
2023-04-15T04:42:40.307Z,11.01
2023-04-15T04:45:10.296Z,11.03
2023-04-15T04:47:38.910Z,11.05
2023-04-15T04:50:08.537Z,11.05
2023-04-15T04:52:37.666Z,11.05
2023-04-15T04:55:07.188Z,11.07
2023-04-15T04:57:36.677Z,11.07
2023-04-15T05:00:06.097Z,11.06
2023-04-15T05:02:37.006Z,11.05
2023-04-15T05:05:07.423Z,11.03
2023-04-15T05:07:35.640Z,10.99
2023-04-15T05:10:04.450Z,10.95
2023-04-15T05:12:33.417Z,10.92
2023-04-15T05:15:01.857Z,10.88
2023-04-15T05:17:34.445Z,10.86
2023-04-15T05:20:04.298Z,10.85
2023-04-15T05:22:33.151Z,10.84
2023-04-15T05:25:01.950Z,10.86
2023-04-15T05:27:31.547Z,10.89
2023-04-15T05:30:00.491Z,10.89
2023-04-15T05:32:32.285Z,10.86
2023-04-15T05:35:01.777Z,10.81
2023-04-15T05:37:30.851Z,10.79
2023-04-15T05:39:59.954Z,10.80
2023-04-15T05:42:28.768Z,10.81
2023-04-15T05:44:57.686Z,10.78
2023-04-15T05:47:26.561Z,10.74
2023-04-15T05:49:56.024Z,10.70
2023-04-15T05:52:24.982Z,10.70
2023-04-15T05:54:53.873Z,10.66
2023-04-15T05:57:22.943Z,10.67
2023-04-15T05:59:56.560Z,10.69
2023-04-15T06:02:26.039Z,10.67
2023-04-15T06:04:55.160Z,10.66
2023-04-15T06:07:25.005Z,10.63
2023-04-15T06:09:53.834Z,10.59
2023-04-15T06:12:22.771Z,10.54
2023-04-15T06:14:52.104Z,10.52
2023-04-15T06:17:21.348Z,10.53
2023-04-15T06:19:52.272Z,10.58
2023-04-15T06:22:21.551Z,10.58
2023-04-15T06:24:53.622Z,10.57
2023-04-15T06:27:23.887Z,10.57
2023-04-15T06:29:52.956Z,10.54
2023-04-15T06:32:22.291Z,10.52
2023-04-15T06:34:51.525Z,10.54
2023-04-15T06:37:20.627Z,10.51
2023-04-15T06:39:49.489Z,10.52
2023-04-15T06:42:18.144Z,10.53
2023-04-15T06:44:47.167Z,10.53
2023-04-15T06:47:16.111Z,10.49
2023-04-15T06:49:45.204Z,10.48
2023-04-15T06:52:14.097Z,10.50
2023-04-15T06:54:43.510Z,10.51
2023-04-15T06:57:12.178Z,10.49
2023-04-15T06:59:40.889Z,10.48
2023-04-15T07:02:12.813Z,10.47
2023-04-15T07:04:42.148Z,10.45
2023-04-15T07:07:10.256Z,10.42
2023-04-15T07:09:39.059Z,10.41
2023-04-15T07:12:07.664Z,10.42
2023-04-15T07:14:37.212Z,10.41
2023-04-15T07:17:06.318Z,10.38
2023-04-15T07:19:35.354Z,10.36
2023-04-15T07:22:04.112Z,10.36
2023-04-15T07:24:32.814Z,10.40
2023-04-15T07:27:02.670Z,10.41
2023-04-15T07:29:32.065Z,10.45
2023-04-15T07:32:00.769Z,10.55
2023-04-15T07:34:31.410Z,10.61
2023-04-15T07:37:02.000Z,10.66
2023-04-15T07:39:31.196Z,10.72
2023-04-15T07:41:59.547Z,10.76
2023-04-15T07:44:28.083Z,10.80
2023-04-15T07:46:57.326Z,10.84
2023-04-15T07:49:25.930Z,10.90
2023-04-15T07:51:55.377Z,10.95
2023-04-15T07:54:23.797Z,10.99
2023-04-15T07:56:52.532Z,11.03
2023-04-15T07:59:21.814Z,11.04
2023-04-15T08:01:53.338Z,11.07
2023-04-15T08:04:22.431Z,11.14
2023-04-15T08:06:50.780Z,11.20
2023-04-15T08:09:20.276Z,11.26
2023-04-15T08:11:52.087Z,11.34
2023-04-15T08:14:21.202Z,11.44
2023-04-15T08:16:49.796Z,11.68
2023-04-15T08:19:18.560Z,11.88
2023-04-15T08:21:47.421Z,12.03
2023-04-15T08:24:16.313Z,12.20
2023-04-15T08:26:46.025Z,12.30
2023-04-15T08:29:14.267Z,12.39
2023-04-15T08:31:42.456Z,12.50
2023-04-15T08:34:12.811Z,12.62
2023-04-15T08:36:41.982Z,12.68
2023-04-15T08:39:10.391Z,12.73
2023-04-15T08:42:02.371Z,12.75
2023-04-15T08:44:34.163Z,12.80
2023-04-15T08:47:03.825Z,12.87
2023-04-15T08:49:33.677Z,12.92
2023-04-15T08:52:02.927Z,12.88
2023-04-15T08:54:32.917Z,12.89
2023-04-15T08:57:03.437Z,12.86
2023-04-15T08:59:32.563Z,12.80
2023-04-15T09:02:01.910Z,12.73
2023-04-15T09:04:32.105Z,12.62
2023-04-15T09:07:01.444Z,12.53
2023-04-15T09:09:29.811Z,12.45
2023-04-15T09:11:58.973Z,12.39
2023-04-15T09:14:32.775Z,12.37
2023-04-15T09:17:05.535Z,12.32
2023-04-15T09:19:35.419Z,12.25
2023-04-15T09:22:04.910Z,12.23
2023-04-15T09:24:38.941Z,12.21
2023-04-15T09:27:08.198Z,12.19
2023-04-15T09:29:37.828Z,12.19
2023-04-15T09:32:14.787Z,12.20
2023-04-15T09:34:43.529Z,12.19
2023-04-15T09:37:28.556Z,12.23
2023-04-15T09:40:00.061Z,12.28
2023-04-15T09:42:29.408Z,12.28
2023-04-15T09:45:08.471Z,12.26
2023-04-15T09:47:37.493Z,12.24
2023-04-15T09:50:06.590Z,12.23
2023-04-15T09:52:41.647Z,12.26
2023-04-15T09:55:11.202Z,12.27
2023-04-15T09:57:42.113Z,12.25
2023-04-15T10:00:11.871Z,12.22
2023-04-15T10:02:41.760Z,12.18
2023-04-15T10:05:16.113Z,12.14
2023-04-15T10:07:46.320Z,12.12
2023-04-15T10:10:15.563Z,12.13
2023-04-15T10:12:44.940Z,12.14
2023-04-15T10:15:18.421Z,12.10
2023-04-15T10:17:48.829Z,12.04
2023-04-15T10:20:18.903Z,12.00
2023-04-15T10:22:47.751Z,11.93
2023-04-15T10:25:17.244Z,11.94
2023-04-15T10:27:49.188Z,11.91
2023-04-15T10:30:19.655Z,11.84
2023-04-15T10:32:49.357Z,11.77
2023-04-15T10:35:19.713Z,11.77
2023-04-15T10:37:48.834Z,11.77
2023-04-15T10:40:34.137Z,11.78
2023-04-15T10:43:03.300Z,11.80
2023-04-15T10:45:37.393Z,11.81
2023-04-15T10:48:08.274Z,11.86
2023-04-15T10:50:38.696Z,11.93
2023-04-15T10:53:10.867Z,11.95
2023-04-15T10:55:39.818Z,11.93
2023-04-15T10:58:10.457Z,11.93
2023-04-15T11:00:40.580Z,11.92
2023-04-15T11:03:10.538Z,11.91
2023-04-15T11:05:43.057Z,11.91
2023-04-15T11:08:12.567Z,11.92
2023-04-15T11:10:41.677Z,11.89
2023-04-15T11:13:11.157Z,11.90
2023-04-15T11:15:45.879Z,11.93
2023-04-15T11:18:22.669Z,11.91
2023-04-15T11:20:52.667Z,11.90
2023-04-15T11:23:28.631Z,11.87
2023-04-15T11:26:01.443Z,11.87
2023-04-15T11:28:31.911Z,11.90
2023-04-15T11:31:06.885Z,11.90
2023-04-15T11:33:35.964Z,11.94
2023-04-15T11:36:05.024Z,11.91
2023-04-15T11:38:35.092Z,11.82
2023-04-15T11:41:03.971Z,11.80
2023-04-15T11:43:35.905Z,11.81
2023-04-15T11:46:05.439Z,11.79
2023-04-15T11:48:36.578Z,11.83
2023-04-15T11:51:06.627Z,11.81
2023-04-15T11:53:44.409Z,11.78
2023-04-15T11:56:20.738Z,11.78
2023-04-15T11:58:51.308Z,11.81
2023-04-15T12:01:20.619Z,11.85
2023-04-15T12:03:50.656Z,11.83
2023-04-15T12:06:21.360Z,11.81
2023-04-15T12:08:50.620Z,11.77
2023-04-15T12:11:20.315Z,11.78
2023-04-15T12:13:49.938Z,11.80
2023-04-15T12:16:22.307Z,11.81
2023-04-15T12:18:52.566Z,11.83
2023-04-15T12:21:21.819Z,11.91
2023-04-15T12:23:54.704Z,11.94
2023-04-15T12:26:28.174Z,11.94
2023-04-15T12:29:01.472Z,11.95
2023-04-15T12:31:30.919Z,11.96
2023-04-15T12:34:01.547Z,11.98
2023-04-15T12:36:36.760Z,11.96
2023-04-15T12:39:06.811Z,11.92
2023-04-15T12:41:35.963Z,11.88
2023-04-15T12:44:04.724Z,11.83
2023-04-15T12:46:34.077Z,11.78
2023-04-15T12:49:03.362Z,11.78
2023-04-15T12:51:32.276Z,11.80
2023-04-15T12:54:01.432Z,11.80
2023-04-15T12:56:30.440Z,11.80
2023-04-15T12:58:59.218Z,11.81
2023-04-15T13:01:28.073Z,11.87
2023-04-15T13:03:57.165Z,11.95
2023-04-15T13:06:26.558Z,12.05
2023-04-15T13:08:58.795Z,12.12
2023-04-15T13:11:31.064Z,12.12
2023-04-15T13:14:01.323Z,12.16
2023-04-15T13:16:29.914Z,12.19
2023-04-15T13:18:59.755Z,12.23
2023-04-15T13:21:33.101Z,12.20
2023-04-15T13:24:02.281Z,12.21
2023-04-15T13:26:32.282Z,12.24
2023-04-15T13:29:02.589Z,12.24
2023-04-15T13:31:31.718Z,12.27
2023-04-15T13:34:00.819Z,12.29
2023-04-15T13:36:29.031Z,12.28
2023-04-15T13:38:57.986Z,12.29
2023-04-15T13:41:27.144Z,12.27
2023-04-15T13:43:56.186Z,12.21
2023-04-15T13:46:26.850Z,12.13
2023-04-15T13:48:55.843Z,12.05
2023-04-15T13:51:24.768Z,11.94
2023-04-15T13:53:53.166Z,11.84
2023-04-15T13:56:22.327Z,11.76
2023-04-15T13:58:51.210Z,11.71
2023-04-15T14:01:19.570Z,11.73
2023-04-15T14:03:48.434Z,11.76
2023-04-15T14:06:17.788Z,11.78
2023-04-15T14:08:46.571Z,11.80
2023-04-15T14:11:15.724Z,11.78
2023-04-15T14:13:44.323Z,11.75
2023-04-15T14:16:13.841Z,11.71
2023-04-15T14:18:44.089Z,11.72
2023-04-15T14:21:12.548Z,11.71
2023-04-15T14:23:41.444Z,11.70
2023-04-15T14:26:10.453Z,11.71
2023-04-15T14:28:39.532Z,11.70
2023-04-15T14:31:08.272Z,11.70
2023-04-15T14:33:37.288Z,11.66
2023-04-15T14:36:05.665Z,11.61
2023-04-15T14:38:39.067Z,11.56
2023-04-15T14:41:11.251Z,11.58
2023-04-15T14:43:40.378Z,11.58
2023-04-15T14:46:09.759Z,11.62
2023-04-15T14:48:38.717Z,11.73
2023-04-15T14:51:07.413Z,11.78
2023-04-15T14:53:36.252Z,11.82
2023-04-15T14:56:04.631Z,11.89
2023-04-15T14:58:33.581Z,11.91
2023-04-15T15:01:03.494Z,11.92
2023-04-15T15:03:32.388Z,11.93
2023-04-15T15:06:01.804Z,11.92
2023-04-15T15:08:30.884Z,11.91
2023-04-15T15:10:59.856Z,11.89
2023-04-15T15:13:28.873Z,11.87
2023-04-15T15:15:58.038Z,11.81
2023-04-15T15:18:26.370Z,11.77
2023-04-15T15:20:55.427Z,11.74
2023-04-15T15:23:24.114Z,11.71
2023-04-15T15:25:52.585Z,11.68
2023-04-15T15:28:22.084Z,11.61
2023-04-15T15:30:50.528Z,11.54
2023-04-15T15:33:18.844Z,11.54
2023-04-15T15:35:47.408Z,11.55
2023-04-15T15:38:15.961Z,11.54
2023-04-15T15:40:44.760Z,11.55
2023-04-15T15:43:13.229Z,11.54
2023-04-15T15:45:41.659Z,11.52
2023-04-15T15:48:10.156Z,11.54
2023-04-15T15:50:39.260Z,11.54
2023-04-15T15:53:07.836Z,11.51
2023-04-15T15:55:36.884Z,11.47
2023-04-15T15:58:05.227Z,11.40
2023-04-15T16:00:33.366Z,11.32
2023-04-15T16:03:07.110Z,11.27
2023-04-15T16:05:36.053Z,11.25
2023-04-15T16:08:04.284Z,11.21
2023-04-15T16:10:32.512Z,11.15
2023-04-15T16:13:00.822Z,11.14
2023-04-15T16:15:29.012Z,11.12
2023-04-15T16:17:57.128Z,11.09
2023-04-15T16:20:25.400Z,11.05
2023-04-15T16:22:53.502Z,11.05
2023-04-15T16:25:21.661Z,11.04
2023-04-15T16:27:58.974Z,10.99
2023-04-15T16:30:31.694Z,10.96
2023-04-15T16:32:59.829Z,10.92
2023-04-15T16:35:28.532Z,10.89
2023-04-15T16:37:56.646Z,10.87
2023-04-15T16:40:25.060Z,10.88
2023-04-15T16:42:53.184Z,10.87
2023-04-15T16:45:21.752Z,10.81
2023-04-15T16:47:50.073Z,10.78
2023-04-15T16:50:18.359Z,10.78
2023-04-15T16:52:46.688Z,10.77
2023-04-15T16:55:15.140Z,10.77
2023-04-15T16:58:01.441Z,10.75
2023-04-15T17:00:32.163Z,10.69
2023-04-15T17:03:00.979Z,10.63
2023-04-15T17:05:33.285Z,10.60
2023-04-15T17:08:02.752Z,10.57
2023-04-15T17:10:31.229Z,10.55
2023-04-15T17:13:00.303Z,10.53
2023-04-15T17:15:28.586Z,10.51
2023-04-15T17:17:57.122Z,10.44
2023-04-15T17:20:26.752Z,10.42
2023-04-15T17:22:55.240Z,10.42
2023-04-15T17:25:23.543Z,10.38
2023-04-15T17:27:52.078Z,10.35
2023-04-15T17:30:21.364Z,10.38
2023-04-15T17:32:51.562Z,10.38
2023-04-15T17:35:20.448Z,10.36
2023-04-15T17:37:49.385Z,10.31
2023-04-15T17:40:17.950Z,10.30
2023-04-15T17:42:46.648Z,10.31
2023-04-15T17:45:15.150Z,10.31
2023-04-15T17:47:43.689Z,10.30
2023-04-15T17:50:12.518Z,10.28
2023-04-15T17:52:40.598Z,10.24
2023-04-15T17:55:08.997Z,10.24
2023-04-15T17:57:37.220Z,10.27
2023-04-15T18:00:06.364Z,10.26
2023-04-15T18:02:41.476Z,10.23
2023-04-15T18:05:10.823Z,10.20
2023-04-15T18:07:39.678Z,10.20
2023-04-15T18:10:08.729Z,10.18
2023-04-15T18:12:37.085Z,10.18
2023-04-15T18:15:05.971Z,10.18
2023-04-15T18:17:34.281Z,10.15
2023-04-15T18:20:03.032Z,10.14
2023-04-15T18:22:31.793Z,10.14
2023-04-15T18:25:06.002Z,10.12
2023-04-15T18:27:39.810Z,10.11
2023-04-15T18:30:09.428Z,10.08
2023-04-15T18:32:38.402Z,10.07
2023-04-15T18:35:07.188Z,10.07
2023-04-15T18:37:35.683Z,10.08
2023-04-15T18:40:04.106Z,10.04
2023-04-15T18:42:32.556Z,10.00
2023-04-15T18:45:01.027Z,9.96
2023-04-15T18:47:30.004Z,9.97
2023-04-15T18:49:58.646Z,9.96
2023-04-15T18:52:27.243Z,9.95
2023-04-15T18:54:56.056Z,9.92
2023-04-15T18:57:31.060Z,9.90
2023-04-15T19:00:05.292Z,9.88
2023-04-15T19:02:34.222Z,9.89
2023-04-15T19:05:04.603Z,9.87
2023-04-15T19:07:33.663Z,9.83
2023-04-15T19:10:03.430Z,9.81
2023-04-15T19:12:32.080Z,9.83
2023-04-15T19:15:00.934Z,9.81
2023-04-15T19:17:29.443Z,9.80
2023-04-15T19:19:57.656Z,9.74
2023-04-15T19:22:26.982Z,9.68
2023-04-15T19:24:55.344Z,9.66
2023-04-15T19:27:23.727Z,9.64
2023-04-15T19:29:52.320Z,9.67
2023-04-15T19:32:21.379Z,9.66
2023-04-15T19:34:49.925Z,9.64
2023-04-15T19:37:18.171Z,9.61
2023-04-15T19:39:46.727Z,9.58
2023-04-15T19:42:15.342Z,9.59
2023-04-15T19:44:43.693Z,9.60
2023-04-15T19:47:12.037Z,9.57
2023-04-15T19:49:40.692Z,9.55
2023-04-15T19:52:09.739Z,9.54
2023-04-15T19:54:38.314Z,9.52
2023-04-15T19:57:06.646Z,9.53
2023-04-15T19:59:35.942Z,9.55
2023-04-15T20:02:05.486Z,9.59
2023-04-15T20:04:34.794Z,9.60
2023-04-15T20:07:04.033Z,9.61
2023-04-15T20:09:32.984Z,9.61
2023-04-15T20:12:48.238Z,9.60
2023-04-15T20:14:51.565Z,9.60
2023-04-15T20:17:20.066Z,9.60
2023-04-15T20:19:48.270Z,9.58
2023-04-15T20:22:16.993Z,9.58
2023-04-15T20:24:46.386Z,9.57
2023-04-15T20:27:16.085Z,9.52
2023-04-15T20:29:44.899Z,9.49
2023-04-15T20:32:13.467Z,9.49
2023-04-15T20:34:42.318Z,9.50
2023-04-15T20:37:13.344Z,9.51
2023-04-15T20:39:42.431Z,9.50
2023-04-15T20:42:12.013Z,9.54
2023-04-15T20:44:41.230Z,9.57
2023-04-15T20:47:09.581Z,9.55
2023-04-15T20:49:39.482Z,9.52
2023-04-15T20:52:09.905Z,9.52
2023-04-15T20:54:38.219Z,9.56
2023-04-15T20:57:06.875Z,9.55
2023-04-15T20:59:36.593Z,9.55
2023-04-15T21:02:05.000Z,9.57
2023-04-15T21:04:33.416Z,9.58
2023-04-15T21:07:01.945Z,9.60
2023-04-15T21:09:30.659Z,9.64
2023-04-15T21:12:01.670Z,9.64
2023-04-15T21:14:32.702Z,9.66
2023-04-15T21:17:10.196Z,9.66
2023-04-15T21:19:40.684Z,9.65
2023-04-15T21:22:10.031Z,9.67
2023-04-15T21:24:38.763Z,9.68
2023-04-15T21:27:07.676Z,9.68
2023-04-15T21:29:35.880Z,9.67
2023-04-15T21:32:04.223Z,9.69
2023-04-15T21:34:32.696Z,9.69
2023-04-15T21:37:01.934Z,9.68
2023-04-15T21:39:30.606Z,9.67
2023-04-15T21:41:59.917Z,9.67
2023-04-15T21:44:28.287Z,9.67
2023-04-15T21:46:59.513Z,9.67
2023-04-15T21:49:28.041Z,9.70
2023-04-15T21:52:01.387Z,9.72
2023-04-15T21:54:32.024Z,9.72
2023-04-15T21:57:00.834Z,9.70
2023-04-15T21:59:29.388Z,9.70
2023-04-15T22:01:58.812Z,9.68
2023-04-15T22:04:27.411Z,9.68
2023-04-15T22:07:00.340Z,9.69
2023-04-15T22:09:29.754Z,9.70
2023-04-15T22:12:00.399Z,9.71
2023-04-15T22:14:30.838Z,9.70
2023-04-15T22:16:59.599Z,9.67
2023-04-15T22:19:29.068Z,9.62
2023-04-15T22:21:59.405Z,9.63
2023-04-15T22:24:35.051Z,9.64
2023-04-15T22:27:09.684Z,9.67
2023-04-15T22:29:38.810Z,9.69
2023-04-15T22:32:07.963Z,9.72
2023-04-15T22:34:38.102Z,9.77
2023-04-15T22:37:06.570Z,9.80
2023-04-15T22:39:35.854Z,9.79
2023-04-15T22:42:05.071Z,9.78
2023-04-15T22:44:33.656Z,9.79
2023-04-15T22:47:02.997Z,9.78
2023-04-15T22:49:31.608Z,9.79
2023-04-15T22:52:00.052Z,9.77
2023-04-15T22:54:28.502Z,9.72
2023-04-15T22:56:57.524Z,9.69
2023-04-15T22:59:26.098Z,9.65
2023-04-15T23:01:55.360Z,9.65
2023-04-15T23:04:26.225Z,9.62
2023-04-15T23:06:57.116Z,9.58
2023-04-15T23:09:26.806Z,9.60
2023-04-15T23:11:57.421Z,9.61
2023-04-15T23:14:28.340Z,9.59
2023-04-15T23:16:57.694Z,9.58
2023-04-15T23:19:26.787Z,9.57
2023-04-15T23:21:55.919Z,9.51
2023-04-15T23:24:25.796Z,9.47
2023-04-15T23:26:55.726Z,9.44
2023-04-15T23:29:25.500Z,9.41
2023-04-15T23:31:54.893Z,9.39
2023-04-15T23:34:23.712Z,9.39
2023-04-15T23:36:53.002Z,9.36
2023-04-15T23:39:21.226Z,9.37
2023-04-15T23:41:50.041Z,9.40
2023-04-15T23:44:19.155Z,9.42
2023-04-15T23:46:48.272Z,9.43
2023-04-15T23:49:18.978Z,9.45
2023-04-15T23:51:49.966Z,9.46
2023-04-15T23:54:18.860Z,9.45
2023-04-15T23:56:48.724Z,9.42
2023-04-15T23:59:18.180Z,9.40
